createdAt,value
2022-07-28T00:02:19.738Z,101315.00
2022-07-28T00:04:50.081Z,101317.00
2022-07-28T00:07:20.459Z,101317.00
2022-07-28T00:09:50.826Z,101312.00
2022-07-28T00:12:21.225Z,101310.00
2022-07-28T00:14:51.517Z,101306.00
2022-07-28T00:17:25.161Z,101317.00
2022-07-28T00:19:55.358Z,101313.00
2022-07-28T00:22:25.521Z,101319.00
2022-07-28T00:24:55.766Z,101314.00
2022-07-28T00:27:26.352Z,101316.00
2022-07-28T00:29:56.561Z,101320.00
2022-07-28T00:32:29.542Z,101318.00
2022-07-28T00:35:00.110Z,101316.00
2022-07-28T00:37:30.498Z,101315.00
2022-07-28T00:40:00.884Z,101316.00
2022-07-28T00:42:31.126Z,101312.00
2022-07-28T00:45:01.520Z,101319.00
2022-07-28T00:47:34.637Z,101316.00
2022-07-28T00:50:05.883Z,101319.00
2022-07-28T00:52:37.090Z,101317.00
2022-07-28T00:55:08.517Z,101327.00
2022-07-28T00:57:38.890Z,101328.00
2022-07-28T01:00:11.648Z,101323.00
2022-07-28T01:02:46.805Z,101330.00
2022-07-28T01:05:18.000Z,101312.00
2022-07-28T01:08:16.737Z,101320.00
2022-07-28T01:10:55.152Z,101314.00
2022-07-28T01:13:33.286Z,101315.00
2022-07-28T01:16:09.067Z,101318.00
2022-07-28T01:18:49.373Z,101310.00
2022-07-28T01:21:27.003Z,101310.00
2022-07-28T01:24:15.015Z,101315.00
2022-07-28T01:27:01.510Z,101317.00
2022-07-28T01:30:04.430Z,101322.00
2022-07-28T01:32:43.964Z,101318.00
2022-07-28T01:35:19.755Z,101314.00
2022-07-28T01:37:55.189Z,101314.00
2022-07-28T01:40:32.623Z,101309.00
2022-07-28T01:43:06.166Z,101317.00
2022-07-28T01:45:41.383Z,101315.00
2022-07-28T01:48:15.473Z,101321.00
2022-07-28T01:50:47.588Z,101321.00
2022-07-28T01:53:20.238Z,101327.00
2022-07-28T01:55:53.379Z,101317.00
2022-07-28T01:58:26.728Z,101314.00
2022-07-28T02:00:59.049Z,101320.00
2022-07-28T02:03:33.696Z,101324.00
2022-07-28T02:06:05.488Z,101315.00
2022-07-28T02:08:38.133Z,101312.00
2022-07-28T02:11:20.889Z,101317.00
2022-07-28T02:13:53.353Z,101311.00
2022-07-28T02:16:28.209Z,101306.00
2022-07-28T02:19:03.829Z,101308.00
2022-07-28T02:21:36.308Z,101309.00
2022-07-28T02:24:09.804Z,101307.00
2022-07-28T02:26:45.466Z,101311.00
2022-07-28T02:29:40.471Z,101326.00
2022-07-28T02:32:25.813Z,101316.00
2022-07-28T02:35:04.869Z,101313.00
2022-07-28T02:37:41.621Z,101313.00
2022-07-28T02:40:17.587Z,101320.00
2022-07-28T02:42:52.557Z,101313.00
2022-07-28T02:45:27.237Z,101318.00
2022-07-28T02:48:00.772Z,101310.00
2022-07-28T02:50:33.722Z,101318.00
2022-07-28T02:53:15.604Z,101325.00
2022-07-28T02:55:50.025Z,101318.00
2022-07-28T02:58:24.455Z,101325.00
2022-07-28T03:00:57.171Z,101325.00
2022-07-28T03:03:28.475Z,101329.00
2022-07-28T03:06:01.269Z,101337.00
2022-07-28T03:08:31.892Z,101335.00
2022-07-28T03:11:12.328Z,101336.00
2022-07-28T03:13:43.488Z,101339.00
2022-07-28T03:16:14.373Z,101344.00
2022-07-28T03:18:45.161Z,101339.00
2022-07-28T03:21:18.707Z,101343.00
2022-07-28T03:23:51.364Z,101355.00
2022-07-28T03:26:30.883Z,101357.00
2022-07-28T03:29:02.348Z,101370.00
2022-07-28T03:31:34.887Z,101367.00
2022-07-28T03:34:05.387Z,101366.00
2022-07-28T03:36:43.735Z,101372.00
2022-07-28T03:39:16.886Z,101370.00
2022-07-28T03:41:48.753Z,101371.00
2022-07-28T03:44:27.995Z,101373.00
2022-07-28T03:46:59.905Z,101377.00
2022-07-28T03:49:30.452Z,101377.00
2022-07-28T03:52:03.416Z,101368.00
2022-07-28T03:54:33.782Z,101365.00
2022-07-28T03:57:03.976Z,101369.00
2022-07-28T03:59:34.311Z,101371.00
2022-07-28T04:02:04.608Z,101376.00
2022-07-28T04:04:35.096Z,101371.00
2022-07-28T04:07:07.939Z,101377.00
2022-07-28T04:09:38.481Z,101381.00
2022-07-28T04:12:09.676Z,101368.00
2022-07-28T04:14:40.106Z,101374.00
2022-07-28T04:17:10.756Z,101377.00
2022-07-28T04:19:41.152Z,101383.00
2022-07-28T04:22:13.935Z,101378.00
2022-07-28T04:24:44.217Z,101379.00
2022-07-28T04:27:16.249Z,101384.00
2022-07-28T04:29:46.456Z,101377.00
2022-07-28T04:32:16.893Z,101387.00
2022-07-28T04:34:47.140Z,101390.00
2022-07-28T04:37:20.030Z,101390.00
2022-07-28T04:39:51.165Z,101385.00
2022-07-28T04:42:21.527Z,101391.00
2022-07-28T04:44:51.753Z,101382.00
2022-07-28T04:47:22.399Z,101386.00
2022-07-28T04:49:52.742Z,101384.00
2022-07-28T04:52:26.426Z,101386.00
2022-07-28T04:54:57.052Z,101397.00
2022-07-28T04:57:28.438Z,101385.00
2022-07-28T04:59:58.744Z,101392.00
2022-07-28T05:02:29.971Z,101392.00
2022-07-28T05:05:00.432Z,101394.00
2022-07-28T05:07:33.325Z,101387.00
2022-07-28T05:10:03.533Z,101387.00
2022-07-28T05:12:33.870Z,101391.00
2022-07-28T05:15:04.488Z,101393.00
2022-07-28T05:17:34.686Z,101395.00
2022-07-28T05:20:05.031Z,101400.00
2022-07-28T05:22:50.979Z,101389.00
2022-07-28T05:25:24.175Z,101391.00
2022-07-28T05:27:56.002Z,101391.00
2022-07-28T05:30:26.480Z,101397.00
2022-07-28T05:33:01.369Z,101402.00
2022-07-28T05:35:32.130Z,101404.00
2022-07-28T05:38:08.970Z,101406.00
2022-07-28T05:40:41.288Z,101405.00
2022-07-28T05:43:11.880Z,101409.00
2022-07-28T05:45:42.389Z,101409.00
2022-07-28T05:48:12.778Z,101410.00
2022-07-28T05:50:43.230Z,101418.00
2022-07-28T05:53:16.462Z,101416.00
2022-07-28T05:55:57.751Z,101421.00
2022-07-28T05:58:32.577Z,101421.00
2022-07-28T06:01:04.343Z,101423.00
2022-07-28T06:03:41.874Z,101427.00
2022-07-28T06:06:16.161Z,101420.00
2022-07-28T06:08:50.348Z,101424.00
2022-07-28T06:11:23.100Z,101427.00
2022-07-28T06:13:55.284Z,101429.00
2022-07-28T06:16:26.233Z,101428.00
2022-07-28T06:18:56.572Z,101424.00
2022-07-28T06:21:27.290Z,101428.00
2022-07-28T06:24:00.365Z,101432.00
2022-07-28T06:26:30.745Z,101426.00
2022-07-28T06:29:01.078Z,101423.00
2022-07-28T06:31:31.760Z,101428.00
2022-07-28T06:34:02.351Z,101429.00
2022-07-28T06:36:32.922Z,101425.00
2022-07-28T06:39:06.360Z,101437.00
2022-07-28T06:41:41.602Z,101428.00
2022-07-28T06:44:12.500Z,101437.00
2022-07-28T06:46:43.172Z,101429.00
2022-07-28T06:49:13.925Z,101424.00
2022-07-28T06:51:44.596Z,101437.00
2022-07-28T06:54:18.465Z,101435.00
2022-07-28T06:56:49.708Z,101437.00
2022-07-28T06:59:20.370Z,101433.00
2022-07-28T07:01:50.914Z,101430.00
2022-07-28T07:04:21.602Z,101429.00
2022-07-28T07:06:52.115Z,101425.00
2022-07-28T07:09:25.186Z,101428.00
2022-07-28T07:11:55.627Z,101428.00
2022-07-28T07:14:30.613Z,101426.00
2022-07-28T07:17:01.024Z,101425.00
2022-07-28T07:19:31.712Z,101429.00
2022-07-28T07:22:02.307Z,101426.00
2022-07-28T07:24:35.747Z,101427.00
2022-07-28T07:27:06.491Z,101425.00
2022-07-28T07:29:37.097Z,101423.00
2022-07-28T07:32:10.730Z,101427.00
2022-07-28T07:34:42.228Z,101426.00
2022-07-28T07:37:14.750Z,101428.00
2022-07-28T07:39:47.634Z,101426.00
2022-07-28T07:42:18.073Z,101431.00
2022-07-28T07:44:50.467Z,101431.00
2022-07-28T07:47:21.355Z,101426.00
2022-07-28T07:49:51.935Z,101422.00
2022-07-28T07:52:22.180Z,101428.00
2022-07-28T07:54:54.971Z,101437.00
2022-07-28T07:57:25.558Z,101432.00
2022-07-28T07:59:55.846Z,101428.00
2022-07-28T08:02:26.250Z,101435.00
2022-07-28T08:04:58.582Z,101426.00
2022-07-28T08:07:28.915Z,101424.00
2022-07-28T08:10:01.824Z,101433.00
2022-07-28T08:12:32.205Z,101430.00
2022-07-28T08:15:02.669Z,101432.00
2022-07-28T08:17:33.720Z,101430.00
2022-07-28T08:20:04.878Z,101439.00
2022-07-28T08:22:35.440Z,101433.00
2022-07-28T08:25:10.226Z,101430.00
2022-07-28T08:27:40.608Z,101438.00
2022-07-28T08:30:15.169Z,101435.00
2022-07-28T08:32:56.916Z,101433.00
2022-07-28T08:35:35.868Z,101432.00
2022-07-28T08:38:08.056Z,101437.00
2022-07-28T08:40:43.303Z,101435.00
2022-07-28T08:43:32.542Z,101440.00
2022-07-28T08:46:04.536Z,101440.00
2022-07-28T08:48:37.018Z,101440.00
2022-07-28T08:51:10.097Z,101440.00
2022-07-28T08:53:42.719Z,101432.00
2022-07-28T08:56:18.313Z,101434.00
2022-07-28T08:58:48.593Z,101429.00
2022-07-28T09:01:20.009Z,101447.00
2022-07-28T09:03:50.439Z,101438.00
2022-07-28T09:06:21.217Z,101441.00
2022-07-28T09:08:54.033Z,101440.00
2022-07-28T09:11:30.805Z,101444.00
2022-07-28T09:14:01.330Z,101441.00
2022-07-28T09:16:31.737Z,101447.00
2022-07-28T09:19:02.181Z,101443.00
2022-07-28T09:21:33.138Z,101447.00
2022-07-28T09:24:03.605Z,101445.00
2022-07-28T09:26:36.778Z,101435.00
2022-07-28T09:29:08.749Z,101438.00
2022-07-28T09:31:57.250Z,101431.00
2022-07-28T09:34:28.067Z,101434.00
2022-07-28T09:36:58.668Z,101426.00
2022-07-28T09:39:36.861Z,101429.00
2022-07-28T09:42:10.374Z,101437.00
2022-07-28T09:44:40.908Z,101439.00
2022-07-28T09:47:27.164Z,101431.00
2022-07-28T09:49:58.254Z,101431.00
2022-07-28T09:52:33.423Z,101422.00
2022-07-28T09:55:05.124Z,101429.00
2022-07-28T09:57:45.863Z,101423.00
2022-07-28T10:00:31.695Z,101424.00
2022-07-28T10:03:02.241Z,101423.00
2022-07-28T10:05:45.231Z,101418.00
2022-07-28T10:08:15.859Z,101419.00
2022-07-28T10:10:46.472Z,101425.00
2022-07-28T10:13:19.790Z,101417.00
2022-07-28T10:16:14.846Z,101413.00
2022-07-28T10:18:45.793Z,101402.00
2022-07-28T10:21:18.620Z,101413.00
2022-07-28T10:23:52.570Z,101413.00
2022-07-28T10:26:29.037Z,101416.00
2022-07-28T10:29:08.810Z,101413.00
2022-07-28T10:31:47.042Z,101410.00
2022-07-28T10:34:25.316Z,101420.00
2022-07-28T10:36:58.809Z,101413.00
2022-07-28T10:39:38.915Z,101423.00
2022-07-28T10:42:13.125Z,101418.00
2022-07-28T10:44:47.890Z,101410.00
2022-07-28T10:47:19.979Z,101412.00
2022-07-28T10:49:51.815Z,101415.00
2022-07-28T10:52:47.326Z,101415.00
2022-07-28T10:55:21.571Z,101413.00
2022-07-28T10:58:11.940Z,101411.00
2022-07-28T11:00:57.937Z,101407.00
2022-07-28T11:03:45.155Z,101410.00
2022-07-28T11:06:30.700Z,101410.00
2022-07-28T11:09:04.037Z,101405.00
2022-07-28T11:11:50.235Z,101404.00
2022-07-28T11:14:39.462Z,101402.00
2022-07-28T11:17:33.199Z,101411.00
2022-07-28T11:20:16.924Z,101402.00
2022-07-28T11:22:55.388Z,101401.00
2022-07-28T11:25:27.051Z,101405.00
2022-07-28T11:28:07.952Z,101394.00
2022-07-28T11:30:58.425Z,101405.00
2022-07-28T11:33:58.495Z,101401.00
2022-07-28T11:37:05.532Z,101401.00
2022-07-28T11:39:43.489Z,101393.00
2022-07-28T11:42:33.268Z,101393.00
2022-07-28T11:45:38.806Z,101395.00
2022-07-28T11:48:17.748Z,101383.00
2022-07-28T11:51:12.677Z,101386.00
2022-07-28T11:53:45.581Z,101381.00
2022-07-28T11:56:19.212Z,101383.00
2022-07-28T11:58:49.788Z,101380.00
2022-07-28T12:01:22.321Z,101382.00
2022-07-28T12:03:56.835Z,101375.00
2022-07-28T12:06:40.543Z,101375.00
2022-07-28T12:09:13.612Z,101382.00
2022-07-28T12:11:46.134Z,101375.00
2022-07-28T12:14:19.378Z,101366.00
2022-07-28T12:16:54.587Z,101365.00
2022-07-28T12:19:32.743Z,101366.00
2022-07-28T12:22:15.871Z,101364.00
2022-07-28T12:24:46.658Z,101366.00
2022-07-28T12:27:17.763Z,101363.00
2022-07-28T12:30:00.280Z,101367.00
2022-07-28T12:32:35.657Z,101365.00
2022-07-28T12:35:06.692Z,101365.00
2022-07-28T12:37:39.818Z,101369.00
2022-07-28T12:40:14.361Z,101362.00
2022-07-28T12:42:45.396Z,101351.00
2022-07-28T12:45:22.636Z,101349.00
2022-07-28T12:47:54.065Z,101351.00
2022-07-28T12:50:24.773Z,101344.00
2022-07-28T12:53:11.973Z,101347.00
2022-07-28T12:55:45.969Z,101343.00
2022-07-28T12:58:27.618Z,101341.00
2022-07-28T13:00:59.770Z,101350.00
2022-07-28T13:03:31.609Z,101346.00
2022-07-28T13:06:15.156Z,101352.00
2022-07-28T13:08:50.357Z,101339.00
2022-07-28T13:11:46.056Z,101334.00
2022-07-28T13:14:18.367Z,101335.00
2022-07-28T13:17:01.069Z,101337.00
2022-07-28T13:19:31.575Z,101337.00
2022-07-28T13:22:06.883Z,101342.00
2022-07-28T13:24:42.768Z,101324.00
2022-07-28T13:27:13.159Z,101327.00
2022-07-28T13:29:43.379Z,101330.00
2022-07-28T13:32:14.597Z,101328.00
2022-07-28T13:34:45.184Z,101329.00
2022-07-28T13:37:15.858Z,101333.00
2022-07-28T13:39:54.186Z,101332.00
2022-07-28T13:42:25.293Z,101322.00
2022-07-28T13:44:55.491Z,101324.00
2022-07-28T13:47:27.556Z,101323.00
2022-07-28T13:50:06.671Z,101328.00
2022-07-28T13:52:37.416Z,101327.00
2022-07-28T13:55:12.493Z,101328.00
2022-07-28T13:57:46.534Z,101319.00
2022-07-28T14:00:22.736Z,101325.00
2022-07-28T14:02:53.561Z,101323.00
2022-07-28T14:05:24.186Z,101323.00
2022-07-28T14:08:02.350Z,101319.00
2022-07-28T14:10:35.921Z,101324.00
2022-07-28T14:13:06.436Z,101320.00
2022-07-28T14:15:37.392Z,101312.00
2022-07-28T14:18:08.212Z,101313.00
2022-07-28T14:20:38.482Z,101312.00
2022-07-28T14:23:09.284Z,101304.00
2022-07-28T14:25:49.145Z,101306.00
2022-07-28T14:28:20.076Z,101297.00
2022-07-28T14:30:50.431Z,101298.00
2022-07-28T14:33:20.748Z,101289.00
2022-07-28T14:35:51.756Z,101295.00
2022-07-28T14:38:51.819Z,101296.00
2022-07-28T14:41:15.187Z,101289.00
2022-07-28T14:43:45.462Z,101298.00
2022-07-28T14:46:21.065Z,101290.00
2022-07-28T14:48:52.297Z,101280.00
2022-07-28T14:51:22.610Z,101282.00
2022-07-28T14:53:54.197Z,101283.00
2022-07-28T14:56:27.391Z,101278.00
2022-07-28T14:58:57.720Z,101283.00
2022-07-28T15:01:27.984Z,101275.00
2022-07-28T15:04:06.662Z,101272.00
2022-07-28T15:06:37.208Z,101281.00
2022-07-28T15:09:09.611Z,101268.00
2022-07-28T15:11:44.424Z,101278.00
2022-07-28T15:14:15.385Z,101262.00
2022-07-28T15:16:46.865Z,101272.00
2022-07-28T15:19:17.725Z,101270.00
2022-07-28T15:21:49.636Z,101281.00
2022-07-28T15:24:22.439Z,101270.00
2022-07-28T15:26:55.719Z,101269.00
2022-07-28T15:29:26.608Z,101268.00
2022-07-28T15:32:05.916Z,101272.00
2022-07-28T15:34:36.871Z,101268.00
2022-07-28T15:37:07.284Z,101266.00
2022-07-28T15:39:43.165Z,101274.00
2022-07-28T15:42:18.256Z,101277.00
2022-07-28T15:44:49.466Z,101275.00
2022-07-28T15:47:20.134Z,101273.00
2022-07-28T15:49:50.603Z,101265.00
2022-07-28T15:52:20.947Z,101268.00
2022-07-28T15:54:51.357Z,101265.00
2022-07-28T15:57:24.214Z,101267.00
2022-07-28T15:59:54.558Z,101267.00
2022-07-28T16:02:24.919Z,101264.00
2022-07-28T16:04:55.173Z,101270.00
2022-07-28T16:07:29.635Z,101260.00
2022-07-28T16:10:00.345Z,101265.00
2022-07-28T16:12:33.535Z,101259.00
2022-07-28T16:15:04.014Z,101256.00
2022-07-28T16:17:34.708Z,101261.00
2022-07-28T16:20:05.359Z,101256.00
2022-07-28T16:22:41.195Z,101249.00
2022-07-28T16:25:16.880Z,101251.00
2022-07-28T16:27:51.253Z,101240.00
2022-07-28T16:30:22.684Z,101248.00
2022-07-28T16:32:52.937Z,101243.00
2022-07-28T16:35:23.216Z,101241.00
2022-07-28T16:37:53.585Z,101250.00
2022-07-28T16:40:23.865Z,101247.00
2022-07-28T16:42:56.820Z,101246.00
2022-07-28T16:45:30.677Z,101250.00
2022-07-28T16:48:03.859Z,101250.00
2022-07-28T16:50:34.428Z,101251.00
2022-07-28T16:53:09.028Z,101258.00
2022-07-28T16:55:40.307Z,101244.00
2022-07-28T16:58:13.387Z,101252.00
2022-07-28T17:00:43.991Z,101255.00
2022-07-28T17:03:14.428Z,101261.00
2022-07-28T17:05:44.784Z,101254.00
2022-07-28T17:08:15.539Z,101262.00
2022-07-28T17:10:46.299Z,101259.00
2022-07-28T17:13:21.557Z,101250.00
2022-07-28T17:15:52.117Z,101253.00
2022-07-28T17:18:22.646Z,101254.00
2022-07-28T17:20:53.257Z,101256.00
2022-07-28T17:23:23.980Z,101259.00
2022-07-28T17:26:45.634Z,101256.00
2022-07-28T17:28:48.815Z,101259.00
2022-07-28T17:31:19.444Z,101259.00
2022-07-28T17:33:50.312Z,101255.00
2022-07-28T17:36:20.947Z,101258.00
2022-07-28T17:38:51.702Z,101262.00
2022-07-28T17:41:22.273Z,101267.00
2022-07-28T17:43:55.448Z,101266.00
2022-07-28T17:46:26.495Z,101267.00
2022-07-28T17:48:57.431Z,101266.00
2022-07-28T17:51:28.565Z,101268.00
2022-07-28T17:53:59.067Z,101271.00
2022-07-28T17:56:31.443Z,101265.00
2022-07-28T17:59:06.155Z,101268.00
2022-07-28T18:01:37.647Z,101267.00
2022-07-28T18:04:09.558Z,101257.00
2022-07-28T18:06:40.794Z,101261.00
2022-07-28T18:09:12.854Z,101259.00
2022-07-28T18:11:57.961Z,101259.00
2022-07-28T18:14:33.348Z,101260.00
2022-07-28T18:17:03.777Z,101255.00
2022-07-28T18:19:34.267Z,101260.00
2022-07-28T18:22:05.348Z,101255.00
2022-07-28T18:24:36.100Z,101253.00
2022-07-28T18:27:07.136Z,101252.00
2022-07-28T18:29:40.198Z,101254.00
2022-07-28T18:32:12.353Z,101258.00
2022-07-28T18:34:45.535Z,101259.00
2022-07-28T18:37:16.173Z,101259.00
2022-07-28T18:39:46.554Z,101253.00
2022-07-28T18:42:16.863Z,101254.00
2022-07-28T18:44:51.277Z,101254.00
2022-07-28T18:47:21.675Z,101257.00
2022-07-28T18:49:52.191Z,101263.00
2022-07-28T18:52:23.193Z,101259.00
2022-07-28T18:54:53.644Z,101266.00
2022-07-28T18:57:24.063Z,101262.00
2022-07-28T18:59:57.080Z,101262.00
2022-07-28T19:02:27.618Z,101262.00
2022-07-28T19:04:58.870Z,101256.00
2022-07-28T19:07:29.140Z,101258.00
2022-07-28T19:09:59.730Z,101260.00
2022-07-28T19:12:31.563Z,101274.00
2022-07-28T19:15:04.703Z,101272.00
2022-07-28T19:17:34.956Z,101273.00
2022-07-28T19:20:08.097Z,101280.00
2022-07-28T19:22:38.330Z,101268.00
2022-07-28T19:25:10.715Z,101275.00
2022-07-28T19:27:42.006Z,101271.00
2022-07-28T19:30:15.991Z,101275.00
2022-07-28T19:32:46.589Z,101276.00
2022-07-28T19:35:17.218Z,101285.00
2022-07-28T19:37:47.568Z,101272.00
2022-07-28T19:40:18.058Z,101278.00
2022-07-28T19:42:48.945Z,101273.00
2022-07-28T19:45:22.096Z,101274.00
2022-07-28T19:47:52.331Z,101280.00
2022-07-28T19:50:22.850Z,101280.00
2022-07-28T19:52:53.374Z,101274.00
2022-07-28T19:55:23.783Z,101285.00
2022-07-28T19:57:55.172Z,101296.00
2022-07-28T20:00:28.263Z,101294.00
2022-07-28T20:02:58.950Z,101297.00
2022-07-28T20:05:29.745Z,101298.00
2022-07-28T20:08:00.319Z,101297.00
2022-07-28T20:10:30.942Z,101305.00
2022-07-28T20:13:01.281Z,101298.00
2022-07-28T20:15:34.141Z,101304.00
2022-07-28T20:18:05.105Z,101304.00
2022-07-28T20:20:35.401Z,101295.00
2022-07-28T20:23:05.730Z,101297.00
2022-07-28T20:25:36.053Z,101303.00
2022-07-28T20:28:06.266Z,101305.00
2022-07-28T20:30:39.242Z,101302.00
2022-07-28T20:33:09.594Z,101305.00
2022-07-28T20:35:40.436Z,101299.00
2022-07-28T20:38:10.972Z,101309.00
2022-07-28T20:40:41.193Z,101306.00
2022-07-28T20:43:11.425Z,101306.00
2022-07-28T20:45:44.327Z,101309.00
2022-07-28T20:48:15.523Z,101311.00
2022-07-28T20:50:45.941Z,101308.00
2022-07-28T20:53:16.253Z,101311.00
2022-07-28T20:55:46.417Z,101307.00
2022-07-28T20:58:16.712Z,101317.00
2022-07-28T21:00:49.743Z,101312.00
2022-07-28T21:03:21.569Z,101306.00
2022-07-28T21:05:51.977Z,101307.00
2022-07-28T21:08:22.482Z,101315.00
2022-07-28T21:10:52.640Z,101313.00
2022-07-28T21:13:22.965Z,101315.00
2022-07-28T21:15:55.830Z,101318.00
2022-07-28T21:18:26.078Z,101323.00
2022-07-28T21:20:56.266Z,101323.00
2022-07-28T21:23:26.582Z,101326.00
2022-07-28T21:25:56.907Z,101326.00
2022-07-28T21:28:39.567Z,101324.00
2022-07-28T21:31:12.539Z,101334.00
2022-07-28T21:33:42.803Z,101330.00
2022-07-28T21:36:13.072Z,101327.00
2022-07-28T21:38:43.436Z,101326.00
2022-07-28T21:41:13.822Z,101323.00
2022-07-28T21:43:45.068Z,101328.00
2022-07-28T21:46:18.678Z,101331.00
2022-07-28T21:48:49.401Z,101330.00
2022-07-28T21:51:21.685Z,101336.00
2022-07-28T21:53:53.281Z,101333.00
2022-07-28T21:56:23.878Z,101335.00
2022-07-28T21:58:54.081Z,101337.00
2022-07-28T22:01:28.337Z,101332.00
2022-07-28T22:03:59.099Z,101336.00
2022-07-28T22:06:29.587Z,101335.00
2022-07-28T22:08:59.812Z,101337.00
2022-07-28T22:11:30.022Z,101350.00
2022-07-28T22:14:00.369Z,101343.00
2022-07-28T22:16:33.232Z,101336.00
2022-07-28T22:19:03.498Z,101346.00
2022-07-28T22:21:33.920Z,101348.00
2022-07-28T22:24:04.145Z,101350.00
2022-07-28T22:26:34.457Z,101347.00
2022-07-28T22:29:04.640Z,101346.00
2022-07-28T22:31:37.490Z,101356.00
2022-07-28T22:34:07.823Z,101358.00
2022-07-28T22:36:38.640Z,101357.00
2022-07-28T22:39:09.003Z,101357.00
2022-07-28T22:41:39.221Z,101363.00
2022-07-28T22:44:12.376Z,101365.00
2022-07-28T22:46:46.334Z,101364.00
2022-07-28T22:49:18.195Z,101364.00
2022-07-28T22:51:49.991Z,101363.00
2022-07-28T22:54:20.563Z,101375.00
2022-07-28T22:56:51.363Z,101379.00
2022-07-28T22:59:21.587Z,101371.00
2022-07-28T23:01:54.525Z,101369.00
2022-07-28T23:04:26.106Z,101377.00
2022-07-28T23:06:57.429Z,101373.00
2022-07-28T23:09:27.647Z,101378.00
2022-07-28T23:11:58.022Z,101376.00
2022-07-28T23:14:28.371Z,101382.00
2022-07-28T23:17:01.249Z,101383.00
2022-07-28T23:19:31.640Z,101381.00
2022-07-28T23:22:01.875Z,101384.00
2022-07-28T23:24:32.011Z,101381.00
2022-07-28T23:27:03.164Z,101385.00
2022-07-28T23:29:33.428Z,101384.00
2022-07-28T23:32:11.597Z,101380.00
2022-07-28T23:34:44.195Z,101374.00
2022-07-28T23:37:14.484Z,101382.00
2022-07-28T23:39:44.782Z,101381.00
2022-07-28T23:42:15.000Z,101374.00
2022-07-28T23:44:45.290Z,101371.00
2022-07-28T23:47:18.116Z,101360.00
2022-07-28T23:49:48.533Z,101365.00
2022-07-28T23:52:18.837Z,101361.00
2022-07-28T23:54:49.069Z,101368.00
2022-07-28T23:57:19.547Z,101365.00
2022-07-28T23:59:49.927Z,101365.00
